sensor_id;sensor_type;location;lat;lon;timestamp;P1;durP1;ratioP1;P2;durP2;ratioP2
12212;SDS011;6169;44.158;22.788;2023-11-21T00:00:27;4.55;;;2.67;;
12212;SDS011;6169;44.158;22.788;2023-11-21T00:05:31;3.58;;;2.85;;
12212;SDS011;6169;44.158;22.788;2023-11-21T00:10:33;3.55;;;2.47;;
12212;SDS011;6169;44.158;22.788;2023-11-21T00:15:38;3.55;;;2.33;;
12212;SDS011;6169;44.158;22.788;2023-11-21T00:20:42;4.65;;;2.35;;
12212;SDS011;6169;44.158;22.788;2023-11-21T00:25:44;3.00;;;2.15;;
12212;SDS011;6169;44.158;22.788;2023-11-21T00:30:47;3.80;;;2.60;;
12212;SDS011;6169;44.158;22.788;2023-11-21T00:35:50;3.90;;;2.13;;
12212;SDS011;6169;44.158;22.788;2023-11-21T00:40:53;4.78;;;3.20;;
12212;SDS011;6169;44.158;22.788;2023-11-21T00:45:56;3.80;;;2.87;;
12212;SDS011;6169;44.158;22.788;2023-11-21T00:51:00;4.45;;;2.63;;
12212;SDS011;6169;44.158;22.788;2023-11-21T00:56:03;2.88;;;2.30;;
12212;SDS011;6169;44.158;22.788;2023-11-21T01:01:05;7.07;;;2.70;;
12212;SDS011;6169;44.158;22.788;2023-11-21T01:06:09;5.17;;;2.87;;
12212;SDS011;6169;44.158;22.788;2023-11-21T01:11:12;3.40;;;2.50;;
12212;SDS011;6169;44.158;22.788;2023-11-21T01:16:15;5.13;;;2.60;;
12212;SDS011;6169;44.158;22.788;2023-11-21T01:21:19;5.03;;;3.07;;
12212;SDS011;6169;44.158;22.788;2023-11-21T01:26:22;8.35;;;3.03;;
12212;SDS011;6169;44.158;22.788;2023-11-21T01:31:24;4.20;;;2.83;;
12212;SDS011;6169;44.158;22.788;2023-11-21T01:36:33;6.47;;;4.07;;
12212;SDS011;6169;44.158;22.788;2023-11-21T01:41:36;6.30;;;4.43;;
12212;SDS011;6169;44.158;22.788;2023-11-21T01:46:38;6.50;;;3.40;;
12212;SDS011;6169;44.158;22.788;2023-11-21T01:51:43;4.40;;;2.83;;
12212;SDS011;6169;44.158;22.788;2023-11-21T01:56:49;5.80;;;3.50;;
12212;SDS011;6169;44.158;22.788;2023-11-21T02:01:51;5.60;;;3.67;;
12212;SDS011;6169;44.158;22.788;2023-11-21T02:06:55;8.83;;;4.10;;
12212;SDS011;6169;44.158;22.788;2023-11-21T02:11:58;8.10;;;4.33;;
12212;SDS011;6169;44.158;22.788;2023-11-21T02:17:00;7.43;;;4.60;;
12212;SDS011;6169;44.158;22.788;2023-11-21T02:22:05;6.95;;;4.32;;
12212;SDS011;6169;44.158;22.788;2023-11-21T02:27:10;5.38;;;3.45;;
12212;SDS011;6169;44.158;22.788;2023-11-21T02:32:13;5.75;;;3.50;;
12212;SDS011;6169;44.158;22.788;2023-11-21T02:37:17;6.30;;;4.03;;
12212;SDS011;6169;44.158;22.788;2023-11-21T02:42:21;6.78;;;4.05;;
12212;SDS011;6169;44.158;22.788;2023-11-21T02:47:23;6.17;;;3.63;;
12212;SDS011;6169;44.158;22.788;2023-11-21T02:52:25;9.35;;;4.00;;
12212;SDS011;6169;44.158;22.788;2023-11-21T02:57:29;6.93;;;4.68;;
12212;SDS011;6169;44.158;22.788;2023-11-21T03:02:32;6.00;;;4.07;;
12212;SDS011;6169;44.158;22.788;2023-11-21T03:07:37;6.90;;;3.88;;
12212;SDS011;6169;44.158;22.788;2023-11-21T03:12:41;24.23;;;9.77;;
12212;SDS011;6169;44.158;22.788;2023-11-21T03:17:44;17.80;;;7.93;;
12212;SDS011;6169;44.158;22.788;2023-11-21T03:22:49;13.00;;;6.73;;
12212;SDS011;6169;44.158;22.788;2023-11-21T03:27:53;8.50;;;4.60;;
12212;SDS011;6169;44.158;22.788;2023-11-21T03:32:55;7.37;;;4.17;;
12212;SDS011;6169;44.158;22.788;2023-11-21T03:37:58;12.80;;;4.70;;
12212;SDS011;6169;44.158;22.788;2023-11-21T03:43:02;8.43;;;4.57;;
12212;SDS011;6169;44.158;22.788;2023-11-21T03:48:04;9.23;;;4.67;;
12212;SDS011;6169;44.158;22.788;2023-11-21T03:53:07;7.73;;;4.50;;
12212;SDS011;6169;44.158;22.788;2023-11-21T03:58:11;6.73;;;4.20;;
12212;SDS011;6169;44.158;22.788;2023-11-21T04:03:13;11.90;;;6.47;;
12212;SDS011;6169;44.158;22.788;2023-11-21T04:08:16;9.57;;;4.93;;
12212;SDS011;6169;44.158;22.788;2023-11-21T04:13:20;15.23;;;9.37;;
12212;SDS011;6169;44.158;22.788;2023-11-21T04:18:22;8.60;;;5.83;;
12212;SDS011;6169;44.158;22.788;2023-11-21T04:23:24;9.87;;;6.60;;
12212;SDS011;6169;44.158;22.788;2023-11-21T04:28:28;8.77;;;5.07;;
12212;SDS011;6169;44.158;22.788;2023-11-21T04:33:31;9.50;;;5.50;;
12212;SDS011;6169;44.158;22.788;2023-11-21T04:38:33;8.17;;;5.53;;
12212;SDS011;6169;44.158;22.788;2023-11-21T04:43:37;7.50;;;5.57;;
12212;SDS011;6169;44.158;22.788;2023-11-21T04:48:39;9.93;;;5.93;;
12212;SDS011;6169;44.158;22.788;2023-11-21T04:53:42;11.27;;;6.50;;
12212;SDS011;6169;44.158;22.788;2023-11-21T04:58:45;13.20;;;8.70;;
12212;SDS011;6169;44.158;22.788;2023-11-21T05:03:48;12.20;;;7.13;;
12212;SDS011;6169;44.158;22.788;2023-11-21T05:08:50;19.43;;;8.87;;
12212;SDS011;6169;44.158;22.788;2023-11-21T05:13:54;17.20;;;8.80;;
12212;SDS011;6169;44.158;22.788;2023-11-21T05:18:58;17.93;;;9.47;;
12212;SDS011;6169;44.158;22.788;2023-11-21T05:24:01;17.30;;;9.10;;
12212;SDS011;6169;44.158;22.788;2023-11-21T05:29:07;15.30;;;8.80;;
12212;SDS011;6169;44.158;22.788;2023-11-21T05:34:11;22.10;;;10.30;;
12212;SDS011;6169;44.158;22.788;2023-11-21T05:39:13;20.03;;;10.37;;
12212;SDS011;6169;44.158;22.788;2023-11-21T05:44:19;17.33;;;10.03;;
12212;SDS011;6169;44.158;22.788;2023-11-21T05:49:21;25.63;;;13.73;;
12212;SDS011;6169;44.158;22.788;2023-11-21T05:54:23;29.20;;;12.70;;
12212;SDS011;6169;44.158;22.788;2023-11-21T05:59:27;26.57;;;14.87;;
12212;SDS011;6169;44.158;22.788;2023-11-21T06:04:32;24.42;;;12.77;;
12212;SDS011;6169;44.158;22.788;2023-11-21T06:09:34;19.73;;;12.37;;
12212;SDS011;6169;44.158;22.788;2023-11-21T06:14:39;18.17;;;10.73;;
12212;SDS011;6169;44.158;22.788;2023-11-21T06:19:41;14.38;;;8.60;;
12212;SDS011;6169;44.158;22.788;2023-11-21T06:24:44;18.15;;;10.43;;
12212;SDS011;6169;44.158;22.788;2023-11-21T06:29:48;13.85;;;9.32;;
12212;SDS011;6169;44.158;22.788;2023-11-21T06:34:51;12.95;;;7.72;;
12212;SDS011;6169;44.158;22.788;2023-11-21T06:39:54;15.88;;;8.32;;
12212;SDS011;6169;44.158;22.788;2023-11-21T06:44:59;12.90;;;7.40;;
12212;SDS011;6169;44.158;22.788;2023-11-21T06:50:04;12.90;;;6.70;;
12212;SDS011;6169;44.158;22.788;2023-11-21T06:55:07;16.83;;;7.75;;
12212;SDS011;6169;44.158;22.788;2023-11-21T07:00:13;15.45;;;9.18;;
12212;SDS011;6169;44.158;22.788;2023-11-21T07:05:17;18.42;;;10.75;;
12212;SDS011;6169;44.158;22.788;2023-11-21T07:10:21;20.17;;;11.27;;
12212;SDS011;6169;44.158;22.788;2023-11-21T07:15:25;16.60;;;9.55;;
12212;SDS011;6169;44.158;22.788;2023-11-21T07:20:28;28.33;;;16.42;;
12212;SDS011;6169;44.158;22.788;2023-11-21T07:25:31;14.35;;;9.15;;
12212;SDS011;6169;44.158;22.788;2023-11-21T07:30:35;16.48;;;9.35;;
12212;SDS011;6169;44.158;22.788;2023-11-21T07:35:38;13.50;;;9.50;;
12212;SDS011;6169;44.158;22.788;2023-11-21T07:40:40;23.73;;;19.33;;
12212;SDS011;6169;44.158;22.788;2023-11-21T07:45:44;14.85;;;9.65;;
12212;SDS011;6169;44.158;22.788;2023-11-21T07:50:47;13.10;;;9.00;;
12212;SDS011;6169;44.158;22.788;2023-11-21T07:55:49;12.05;;;7.35;;
12212;SDS011;6169;44.158;22.788;2023-11-21T08:00:53;10.30;;;5.70;;
12212;SDS011;6169;44.158;22.788;2023-11-21T08:05:56;11.82;;;8.18;;
12212;SDS011;6169;44.158;22.788;2023-11-21T08:10:59;10.43;;;7.65;;
12212;SDS011;6169;44.158;22.788;2023-11-21T08:16:03;10.90;;;6.47;;
12212;SDS011;6169;44.158;22.788;2023-11-21T08:21:07;7.60;;;5.45;;
12212;SDS011;6169;44.158;22.788;2023-11-21T08:26:12;8.60;;;5.57;;
12212;SDS011;6169;44.158;22.788;2023-11-21T08:31:22;6.90;;;5.53;;
12212;SDS011;6169;44.158;22.788;2023-11-21T08:36:25;7.75;;;5.15;;
12212;SDS011;6169;44.158;22.788;2023-11-21T08:41:28;7.50;;;5.47;;
12212;SDS011;6169;44.158;22.788;2023-11-21T08:46:32;12.65;;;5.63;;
12212;SDS011;6169;44.158;22.788;2023-11-21T08:51:38;21.25;;;11.35;;
12212;SDS011;6169;44.158;22.788;2023-11-21T08:56:40;45.35;;;20.67;;
12212;SDS011;6169;44.158;22.788;2023-11-21T09:01:46;12.70;;;6.57;;
12212;SDS011;6169;44.158;22.788;2023-11-21T09:06:48;8.27;;;5.43;;
12212;SDS011;6169;44.158;22.788;2023-11-21T09:11:51;8.25;;;5.47;;
12212;SDS011;6169;44.158;22.788;2023-11-21T09:16:55;11.23;;;6.28;;
12212;SDS011;6169;44.158;22.788;2023-11-21T09:21:57;28.38;;;14.98;;
12212;SDS011;6169;44.158;22.788;2023-11-21T09:27:00;27.65;;;14.48;;
12212;SDS011;6169;44.158;22.788;2023-11-21T09:32:04;21.33;;;12.45;;
12212;SDS011;6169;44.158;22.788;2023-11-21T09:37:08;13.18;;;7.53;;
12212;SDS011;6169;44.158;22.788;2023-11-21T09:42:11;14.35;;;9.85;;
12212;SDS011;6169;44.158;22.788;2023-11-21T09:47:18;9.25;;;6.05;;
12212;SDS011;6169;44.158;22.788;2023-11-21T09:52:22;12.77;;;6.57;;
12212;SDS011;6169;44.158;22.788;2023-11-21T09:57:27;9.23;;;6.20;;
12212;SDS011;6169;44.158;22.788;2023-11-21T10:02:31;7.75;;;5.47;;
12212;SDS011;6169;44.158;22.788;2023-11-21T10:07:38;9.10;;;5.45;;
12212;SDS011;6169;44.158;22.788;2023-11-21T10:12:43;9.80;;;5.40;;
12212;SDS011;6169;44.158;22.788;2023-11-21T10:17:51;9.95;;;7.03;;
12212;SDS011;6169;44.158;22.788;2023-11-21T10:22:54;10.63;;;4.60;;
12212;SDS011;6169;44.158;22.788;2023-11-21T10:27:57;6.50;;;4.00;;
12212;SDS011;6169;44.158;22.788;2023-11-21T10:33:04;6.55;;;4.97;;
12212;SDS011;6169;44.158;22.788;2023-11-21T10:38:07;7.88;;;4.82;;
12212;SDS011;6169;44.158;22.788;2023-11-21T10:43:10;10.48;;;4.35;;
12212;SDS011;6169;44.158;22.788;2023-11-21T10:48:16;6.10;;;4.45;;
12212;SDS011;6169;44.158;22.788;2023-11-21T10:53:19;6.75;;;4.88;;
12212;SDS011;6169;44.158;22.788;2023-11-21T10:58:21;7.93;;;5.50;;
12212;SDS011;6169;44.158;22.788;2023-11-21T11:03:25;13.02;;;6.18;;
12212;SDS011;6169;44.158;22.788;2023-11-21T11:08:28;10.10;;;6.13;;
12212;SDS011;6169;44.158;22.788;2023-11-21T11:13:31;13.45;;;6.50;;
12212;SDS011;6169;44.158;22.788;2023-11-21T11:18:35;12.10;;;7.80;;
12212;SDS011;6169;44.158;22.788;2023-11-21T11:23:41;9.80;;;7.30;;
12212;SDS011;6169;44.158;22.788;2023-11-21T11:28:57;13.00;;;8.57;;
12212;SDS011;6169;44.158;22.788;2023-11-21T11:34:15;15.60;;;10.88;;
12212;SDS011;6169;44.158;22.788;2023-11-21T11:39:26;17.75;;;10.23;;
12212;SDS011;6169;44.158;22.788;2023-11-21T11:50:01;11.77;;;8.35;;
12212;SDS011;6169;44.158;22.788;2023-11-21T11:55:08;11.90;;;7.53;;
12212;SDS011;6169;44.158;22.788;2023-11-21T12:00:12;15.05;;;8.93;;
12212;SDS011;6169;44.158;22.788;2023-11-21T12:05:22;23.70;;;12.32;;
12212;SDS011;6169;44.158;22.788;2023-11-21T12:10:28;22.25;;;13.88;;
12212;SDS011;6169;44.158;22.788;2023-11-21T12:15:31;18.00;;;11.82;;
12212;SDS011;6169;44.158;22.788;2023-11-21T12:20:35;17.20;;;10.77;;
12212;SDS011;6169;44.158;22.788;2023-11-21T12:25:39;14.95;;;10.13;;
12212;SDS011;6169;44.158;22.788;2023-11-21T12:30:41;19.25;;;11.90;;
12212;SDS011;6169;44.158;22.788;2023-11-21T12:35:46;13.63;;;8.65;;
12212;SDS011;6169;44.158;22.788;2023-11-21T12:40:49;17.13;;;10.02;;
12212;SDS011;6169;44.158;22.788;2023-11-21T12:45:51;16.05;;;9.77;;
12212;SDS011;6169;44.158;22.788;2023-11-21T12:51:08;13.77;;;9.68;;
12212;SDS011;6169;44.158;22.788;2023-11-21T12:56:12;18.73;;;11.85;;
12212;SDS011;6169;44.158;22.788;2023-11-21T13:01:16;17.85;;;11.23;;
12212;SDS011;6169;44.158;22.788;2023-11-21T13:06:21;16.23;;;12.05;;
12212;SDS011;6169;44.158;22.788;2023-11-21T13:11:26;21.30;;;14.02;;
12212;SDS011;6169;44.158;22.788;2023-11-21T13:16:32;22.90;;;13.57;;
12212;SDS011;6169;44.158;22.788;2023-11-21T13:21:36;19.35;;;13.60;;
12212;SDS011;6169;44.158;22.788;2023-11-21T13:26:40;28.38;;;16.70;;
12212;SDS011;6169;44.158;22.788;2023-11-21T13:31:42;16.83;;;11.23;;
12212;SDS011;6169;44.158;22.788;2023-11-21T13:36:47;19.45;;;10.02;;
12212;SDS011;6169;44.158;22.788;2023-11-21T13:41:54;20.42;;;11.90;;
12212;SDS011;6169;44.158;22.788;2023-11-21T13:46:57;18.25;;;9.77;;
12212;SDS011;6169;44.158;22.788;2023-11-21T13:52:01;16.27;;;10.13;;
12212;SDS011;6169;44.158;22.788;2023-11-21T13:57:04;21.73;;;12.65;;
12212;SDS011;6169;44.158;22.788;2023-11-21T14:02:07;16.35;;;9.82;;
12212;SDS011;6169;44.158;22.788;2023-11-21T14:07:19;57.78;;;33.40;;
12212;SDS011;6169;44.158;22.788;2023-11-21T14:12:33;13.30;;;8.35;;
12212;SDS011;6169;44.158;22.788;2023-11-21T14:17:37;12.23;;;7.85;;
12212;SDS011;6169;44.158;22.788;2023-11-21T14:22:43;13.50;;;8.50;;
12212;SDS011;6169;44.158;22.788;2023-11-21T14:27:47;48.58;;;25.23;;
12212;SDS011;6169;44.158;22.788;2023-11-21T14:32:49;74.88;;;35.88;;
12212;SDS011;6169;44.158;22.788;2023-11-21T14:37:53;105.40;;;49.63;;
12212;SDS011;6169;44.158;22.788;2023-11-21T14:42:55;111.72;;;49.25;;
12212;SDS011;6169;44.158;22.788;2023-11-21T14:47:58;174.40;;;79.15;;
12212;SDS011;6169;44.158;22.788;2023-11-21T14:53:09;258.90;;;119.60;;
12212;SDS011;6169;44.158;22.788;2023-11-21T14:58:13;91.32;;;42.72;;
12212;SDS011;6169;44.158;22.788;2023-11-21T15:03:20;38.97;;;23.92;;
12212;SDS011;6169;44.158;22.788;2023-11-21T15:08:44;71.35;;;34.03;;
12212;SDS011;6169;44.158;22.788;2023-11-21T15:13:56;55.97;;;25.95;;
12212;SDS011;6169;44.158;22.788;2023-11-21T15:18:59;56.72;;;26.33;;
12212;SDS011;6169;44.158;22.788;2023-11-21T15:24:03;45.40;;;21.88;;
12212;SDS011;6169;44.158;22.788;2023-11-21T15:29:07;36.60;;;20.88;;
12212;SDS011;6169;44.158;22.788;2023-11-21T15:34:09;32.08;;;19.33;;
12212;SDS011;6169;44.158;22.788;2023-11-21T15:39:13;32.17;;;17.38;;
12212;SDS011;6169;44.158;22.788;2023-11-21T15:44:16;31.88;;;21.65;;
12212;SDS011;6169;44.158;22.788;2023-11-21T15:49:18;53.67;;;31.73;;
12212;SDS011;6169;44.158;22.788;2023-11-21T15:54:23;65.88;;;37.22;;
12212;SDS011;6169;44.158;22.788;2023-11-21T15:59:27;66.35;;;33.92;;
12212;SDS011;6169;44.158;22.788;2023-11-21T16:04:29;45.50;;;23.25;;
12212;SDS011;6169;44.158;22.788;2023-11-21T16:09:33;32.97;;;20.90;;
12212;SDS011;6169;44.158;22.788;2023-11-21T16:14:37;38.83;;;21.42;;
12212;SDS011;6169;44.158;22.788;2023-11-21T16:19:42;44.80;;;28.73;;
12212;SDS011;6169;44.158;22.788;2023-11-21T16:24:46;44.40;;;25.42;;
12212;SDS011;6169;44.158;22.788;2023-11-21T16:29:48;36.28;;;23.20;;
12212;SDS011;6169;44.158;22.788;2023-11-21T16:34:51;40.17;;;25.92;;
12212;SDS011;6169;44.158;22.788;2023-11-21T16:39:54;51.78;;;32.35;;
12212;SDS011;6169;44.158;22.788;2023-11-21T16:44:57;56.17;;;35.90;;
12212;SDS011;6169;44.158;22.788;2023-11-21T16:49:59;59.88;;;37.13;;
12212;SDS011;6169;44.158;22.788;2023-11-21T16:55:04;43.20;;;29.92;;
12212;SDS011;6169;44.158;22.788;2023-11-21T17:00:09;46.75;;;28.80;;
12212;SDS011;6169;44.158;22.788;2023-11-21T17:05:12;35.15;;;23.45;;
12212;SDS011;6169;44.158;22.788;2023-11-21T17:10:16;33.75;;;19.52;;
12212;SDS011;6169;44.158;22.788;2023-11-21T17:15:20;32.08;;;18.92;;
12212;SDS011;6169;44.158;22.788;2023-11-21T17:20:23;29.13;;;20.05;;
12212;SDS011;6169;44.158;22.788;2023-11-21T17:25:28;36.05;;;22.65;;
12212;SDS011;6169;44.158;22.788;2023-11-21T17:30:30;26.50;;;16.23;;
12212;SDS011;6169;44.158;22.788;2023-11-21T17:35:33;24.02;;;15.98;;
12212;SDS011;6169;44.158;22.788;2023-11-21T17:40:37;24.02;;;15.18;;
12212;SDS011;6169;44.158;22.788;2023-11-21T17:45:39;25.85;;;14.60;;
12212;SDS011;6169;44.158;22.788;2023-11-21T17:50:41;25.75;;;16.25;;
12212;SDS011;6169;44.158;22.788;2023-11-21T17:55:45;25.65;;;17.35;;
12212;SDS011;6169;44.158;22.788;2023-11-21T18:00:48;32.05;;;21.25;;
12212;SDS011;6169;44.158;22.788;2023-11-21T18:05:50;28.90;;;19.05;;
12212;SDS011;6169;44.158;22.788;2023-11-21T18:10:54;24.65;;;18.25;;
12212;SDS011;6169;44.158;22.788;2023-11-21T18:15:58;25.58;;;17.80;;
12212;SDS011;6169;44.158;22.788;2023-11-21T18:21:01;26.02;;;17.90;;
12212;SDS011;6169;44.158;22.788;2023-11-21T18:26:05;53.80;;;32.05;;
12212;SDS011;6169;44.158;22.788;2023-11-21T18:31:07;33.45;;;20.38;;
12212;SDS011;6169;44.158;22.788;2023-11-21T18:36:10;30.73;;;21.30;;
12212;SDS011;6169;44.158;22.788;2023-11-21T18:41:20;28.13;;;20.63;;
12212;SDS011;6169;44.158;22.788;2023-11-21T18:46:23;30.08;;;18.00;;
12212;SDS011;6169;44.158;22.788;2023-11-21T18:51:26;22.05;;;17.27;;
12212;SDS011;6169;44.158;22.788;2023-11-21T18:56:30;27.17;;;18.75;;
12212;SDS011;6169;44.158;22.788;2023-11-21T19:01:32;29.67;;;22.25;;
12212;SDS011;6169;44.158;22.788;2023-11-21T19:06:35;28.83;;;18.98;;
12212;SDS011;6169;44.158;22.788;2023-11-21T19:11:38;25.20;;;17.95;;
12212;SDS011;6169;44.158;22.788;2023-11-21T19:16:41;32.85;;;18.33;;
12212;SDS011;6169;44.158;22.788;2023-11-21T19:21:46;24.92;;;15.60;;
12212;SDS011;6169;44.158;22.788;2023-11-21T19:26:50;24.60;;;16.88;;
12212;SDS011;6169;44.158;22.788;2023-11-21T19:31:53;21.77;;;15.73;;
12212;SDS011;6169;44.158;22.788;2023-11-21T19:36:56;21.50;;;15.00;;
12212;SDS011;6169;44.158;22.788;2023-11-21T19:42:01;22.95;;;16.25;;
12212;SDS011;6169;44.158;22.788;2023-11-21T19:47:03;23.33;;;15.93;;
12212;SDS011;6169;44.158;22.788;2023-11-21T19:52:06;23.40;;;14.75;;
12212;SDS011;6169;44.158;22.788;2023-11-21T19:57:10;23.17;;;17.17;;
12212;SDS011;6169;44.158;22.788;2023-11-21T20:02:14;20.88;;;16.52;;
12212;SDS011;6169;44.158;22.788;2023-11-21T20:07:17;23.30;;;16.13;;
12212;SDS011;6169;44.158;22.788;2023-11-21T20:12:23;21.40;;;15.50;;
12212;SDS011;6169;44.158;22.788;2023-11-21T20:17:25;21.88;;;14.90;;
12212;SDS011;6169;44.158;22.788;2023-11-21T20:22:28;22.90;;;15.13;;
12212;SDS011;6169;44.158;22.788;2023-11-21T20:27:32;28.63;;;18.88;;
12212;SDS011;6169;44.158;22.788;2023-11-21T20:32:35;27.38;;;21.08;;
12212;SDS011;6169;44.158;22.788;2023-11-21T20:37:38;28.27;;;17.88;;
12212;SDS011;6169;44.158;22.788;2023-11-21T20:42:42;22.83;;;17.92;;
12212;SDS011;6169;44.158;22.788;2023-11-21T20:47:46;34.47;;;21.63;;
12212;SDS011;6169;44.158;22.788;2023-11-21T20:52:48;33.50;;;20.92;;
12212;SDS011;6169;44.158;22.788;2023-11-21T20:57:52;28.10;;;20.38;;
12212;SDS011;6169;44.158;22.788;2023-11-21T21:02:59;24.23;;;17.13;;
12212;SDS011;6169;44.158;22.788;2023-11-21T21:08:02;23.92;;;17.63;;
12212;SDS011;6169;44.158;22.788;2023-11-21T21:13:06;21.90;;;16.27;;
12212;SDS011;6169;44.158;22.788;2023-11-21T21:18:11;25.92;;;17.80;;
12212;SDS011;6169;44.158;22.788;2023-11-21T21:23:13;30.23;;;18.23;;
12212;SDS011;6169;44.158;22.788;2023-11-21T21:28:17;24.92;;;17.85;;
12212;SDS011;6169;44.158;22.788;2023-11-21T21:33:20;22.85;;;16.23;;
12212;SDS011;6169;44.158;22.788;2023-11-21T21:38:22;23.50;;;15.18;;
12212;SDS011;6169;44.158;22.788;2023-11-21T21:43:26;22.55;;;17.23;;
12212;SDS011;6169;44.158;22.788;2023-11-21T21:48:28;22.95;;;16.95;;
12212;SDS011;6169;44.158;22.788;2023-11-21T21:53:31;24.30;;;16.38;;
12212;SDS011;6169;44.158;22.788;2023-11-21T21:58:35;19.85;;;15.38;;
12212;SDS011;6169;44.158;22.788;2023-11-21T22:03:37;23.35;;;13.93;;
12212;SDS011;6169;44.158;22.788;2023-11-21T22:08:40;22.70;;;15.88;;
12212;SDS011;6169;44.158;22.788;2023-11-21T22:13:44;19.98;;;14.18;;
12212;SDS011;6169;44.158;22.788;2023-11-21T22:18:47;15.52;;;12.25;;
12212;SDS011;6169;44.158;22.788;2023-11-21T22:23:50;20.85;;;14.43;;
12212;SDS011;6169;44.158;22.788;2023-11-21T22:28:54;23.35;;;16.13;;
12212;SDS011;6169;44.158;22.788;2023-11-21T22:33:56;21.35;;;15.27;;
12212;SDS011;6169;44.158;22.788;2023-11-21T22:38:58;30.58;;;21.20;;
12212;SDS011;6169;44.158;22.788;2023-11-21T22:44:04;26.15;;;16.95;;
12212;SDS011;6169;44.158;22.788;2023-11-21T22:49:06;21.30;;;15.30;;
12212;SDS011;6169;44.158;22.788;2023-11-21T22:54:09;22.25;;;15.85;;
12212;SDS011;6169;44.158;22.788;2023-11-21T22:59:13;21.83;;;14.07;;
12212;SDS011;6169;44.158;22.788;2023-11-21T23:04:16;23.73;;;15.73;;
12212;SDS011;6169;44.158;22.788;2023-11-21T23:09:19;24.17;;;15.60;;
12212;SDS011;6169;44.158;22.788;2023-11-21T23:14:24;21.95;;;14.43;;
12212;SDS011;6169;44.158;22.788;2023-11-21T23:19:27;17.83;;;14.68;;
12212;SDS011;6169;44.158;22.788;2023-11-21T23:24:29;25.10;;;17.05;;
12212;SDS011;6169;44.158;22.788;2023-11-21T23:29:33;24.63;;;17.35;;
12212;SDS011;6169;44.158;22.788;2023-11-21T23:34:38;19.88;;;16.10;;
12212;SDS011;6169;44.158;22.788;2023-11-21T23:39:40;33.00;;;24.48;;
12212;SDS011;6169;44.158;22.788;2023-11-21T23:44:45;24.35;;;18.77;;
12212;SDS011;6169;44.158;22.788;2023-11-21T23:49:47;27.15;;;20.13;;
12212;SDS011;6169;44.158;22.788;2023-11-21T23:54:49;32.75;;;21.35;;
12212;SDS011;6169;44.158;22.788;2023-11-21T23:59:54;29.52;;;20.45;;
